Time;durP1;ratioP1;P1;durP2;ratioP2;P2;SDS_P1;SDS_P2;PMS_P1;PMS_P2;Temp;Humidity;BMP_temperature;BMP_pressure;BME280_temperature;BME280_humidity;BME280_pressure;Samples;Min_cycle;Max_cycle;Signal;HPM_P1;HPM_P2
2023/05/22 00:00:46;;;;;;;;;15.25;15.00;;;;;16.26;72.88;99682.88;5118618;28;8838;-60
2023/05/22 00:03:14;;;;;;;;;22.00;17.50;;;;;16.24;73.03;99680.34;5118185;28;8973;-60
2023/05/22 00:05:41;;;;;;;;;21.50;17.25;;;;;16.23;72.84;99681.34;5118406;28;8864;-60
2023/05/22 00:08:10;;;;;;;;;19.25;18.25;;;;;16.22;72.73;99675.31;5118325;28;8954;-61
2023/05/22 00:10:38;;;;;;;;;11.75;11.00;;;;;16.20;72.81;99667.41;5118037;28;8812;-60
2023/05/22 00:13:07;;;;;;;;;17.25;15.75;;;;;16.19;72.50;99674.63;5118067;28;8836;-60
2023/05/22 00:15:34;;;;;;;;;18.50;17.75;;;;;16.17;72.64;99673.13;5117930;28;9007;-60
2023/05/22 00:18:02;;;;;;;;;17.50;17.00;;;;;16.15;72.62;99660.84;5117959;28;8949;-60
2023/05/22 00:20:30;;;;;;;;;17.75;17.75;;;;;16.14;72.72;99672.63;5117846;28;8836;-60
2023/05/22 00:23:00;;;;;;;;;18.00;17.75;;;;;16.11;73.08;99662.19;5117925;28;8816;-61
2023/05/22 00:25:28;;;;;;;;;13.50;12.00;;;;;16.11;72.90;99657.66;5117999;28;8820;-61
2023/05/22 00:27:55;;;;;;;;;14.00;13.00;;;;;16.10;72.66;99660.50;5117949;28;8954;-60
2023/05/22 00:30:23;;;;;;;;;21.25;18.50;;;;;16.09;73.08;99661.50;5117834;28;8955;-60
2023/05/22 00:32:51;;;;;;;;;17.25;16.25;;;;;16.07;73.24;99652.78;5117628;28;8834;-60
2023/05/22 00:35:19;;;;;;;;;23.75;22.75;;;;;16.05;72.94;99649.38;5117703;28;8855;-60
2023/05/22 00:37:47;;;;;;;;;21.00;19.00;;;;;16.01;73.10;99656.13;5117388;28;9028;-60
2023/05/22 00:40:15;;;;;;;;;17.50;15.25;;;;;15.97;72.92;99644.84;5117698;28;9667;-60
2023/05/22 00:42:43;;;;;;;;;7.25;5.75;;;;;15.93;73.60;99646.16;5117898;28;8832;-61
2023/05/22 00:45:10;;;;;;;;;16.00;15.50;;;;;15.90;73.44;99641.13;5117529;28;8836;-60
2023/05/22 00:47:38;;;;;;;;;14.00;12.75;;;;;15.87;73.08;99644.16;5117378;28;8824;-60
2023/05/22 00:50:06;;;;;;;;;18.75;16.75;;;;;15.86;72.98;99641.63;5117723;28;8844;-60
2023/05/22 00:52:34;;;;;;;;;14.00;12.50;;;;;15.84;73.47;99639.09;5117446;28;8831;-61
2023/05/22 00:55:02;;;;;;;;;16.00;15.25;;;;;15.81;73.63;99647.47;5117148;28;8948;-60
2023/05/22 00:57:30;;;;;;;;;18.25;15.50;;;;;15.80;73.10;99643.13;5116986;28;8920;-59
2023/05/22 00:59:58;;;;;;;;;15.75;15.00;;;;;15.80;73.12;99647.63;5117240;28;9633;-60
2023/05/22 01:02:26;;;;;;;;;20.25;16.50;;;;;15.79;73.06;99645.97;5117122;28;8970;-60
2023/05/22 01:04:56;;;;;;;;;19.00;18.00;;;;;15.77;73.58;99639.91;5116432;28;8848;-60
2023/05/22 01:07:24;;;;;;;;;21.25;19.50;;;;;15.78;72.93;99628.16;5116783;28;8845;-60
2023/05/22 01:09:52;;;;;;;;;18.50;16.50;;;;;15.75;73.49;99633.84;5116968;28;8897;-60
2023/05/22 01:12:19;;;;;;;;;18.00;15.25;;;;;15.75;73.06;99633.84;5116857;28;8954;-59
2023/05/22 01:14:47;;;;;;;;;17.25;17.00;;;;;15.74;73.27;99632.16;5116838;28;8820;-59
2023/05/22 01:17:21;;;;;;;;;19.50;18.25;;;;;15.74;73.68;99633.03;5116792;28;8835;-60
2023/05/22 01:19:49;;;;;;;;;19.00;15.50;;;;;15.74;73.54;99637.53;5116072;28;8828;-60
2023/05/22 01:22:20;;;;;;;;;18.00;17.50;;;;;15.75;72.88;99644.59;5116637;28;8848;-60
2023/05/22 01:24:50;;;;;;;;;20.00;18.50;;;;;15.75;73.45;99645.44;5116684;28;8966;-60
2023/05/22 01:27:18;;;;;;;;;10.00;8.50;;;;;15.77;73.29;99650.66;5116529;28;8839;-60
2023/05/22 01:29:46;;;;;;;;;19.50;15.75;;;;;15.79;72.84;99644.09;5117023;28;8828;-59
2023/05/22 01:32:13;;;;;;;;;13.25;12.50;;;;;15.82;72.84;99646.47;5116946;28;8820;-60
2023/05/22 01:34:41;;;;;;;;;15.00;15.00;;;;;15.86;73.18;99645.13;5116519;28;8852;-60
2023/05/22 01:37:10;;;;;;;;;16.75;13.00;;;;;15.92;72.67;99646.34;5116822;28;9017;-60
2023/05/22 01:39:37;;;;;;;;;12.00;11.75;;;;;15.95;72.88;99641.50;5116794;28;8836;-60
2023/05/22 01:42:05;;;;;;;;;13.50;12.50;;;;;15.99;72.38;99642.00;5116758;28;8835;-61
2023/05/22 01:44:32;;;;;;;;;17.50;13.25;;;;;16.01;72.90;99640.00;5116925;28;8840;-61
2023/05/22 01:47:03;;;;;;;;;13.00;12.00;;;;;15.98;73.12;99643.84;5116595;28;8851;-61
2023/05/22 01:49:32;;;;;;;;;12.25;12.25;;;;;15.90;72.66;99640.28;5116690;28;8832;-61
2023/05/22 01:51:59;;;;;;;;;15.25;14.50;;;;;15.83;73.04;99641.94;5116141;28;8989;-61
2023/05/22 01:54:27;;;;;;;;;9.50;9.00;;;;;15.74;73.36;99641.06;5116453;28;8956;-61
2023/05/22 01:56:55;;;;;;;;;15.00;14.50;;;;;15.68;73.25;99639.03;5116352;28;8855;-60
2023/05/22 01:59:24;;;;;;;;;13.50;12.00;;;;;15.64;73.59;99639.53;5115984;28;8847;-61
2023/05/22 02:01:52;;;;;;;;;19.00;13.00;;;;;15.59;73.51;99639.16;5116425;28;8836;-60
2023/05/22 02:04:20;;;;;;;;;20.50;17.00;;;;;15.56;73.32;99643.00;5116207;28;8839;-60
2023/05/22 02:06:48;;;;;;;;;16.00;15.25;;;;;15.54;73.77;99639.63;5116466;28;8966;-60
2023/05/22 02:09:15;;;;;;;;;23.50;18.50;;;;;15.50;73.67;99629.38;5116310;28;8921;-60
2023/05/22 02:11:43;;;;;;;;;20.25;17.00;;;;;15.45;74.16;99637.06;5116600;28;9672;-60
2023/05/22 02:14:11;;;;;;;;;20.50;17.00;;;;;15.39;73.98;99632.38;5116437;28;8824;-60
2023/05/22 02:16:39;;;;;;;;;17.50;15.75;;;;;15.35;74.23;99631.00;5118125;28;8854;-61
2023/05/22 02:19:06;;;;;;;;;19.75;16.75;;;;;15.35;74.38;99631.00;5120488;28;8839;-61
2023/05/22 02:21:35;;;;;;;;;17.00;14.75;;;;;15.34;74.02;99630.16;5120361;28;8854;-61
2023/05/22 02:24:02;;;;;;;;;18.00;17.75;;;;;15.33;74.64;99633.00;5120305;28;8921;-61
2023/05/22 02:26:30;;;;;;;;;16.00;15.00;;;;;15.31;74.05;99630.47;5120350;28;8922;-61
2023/05/22 02:28:58;;;;;;;;;20.00;18.00;;;;;15.31;74.53;99641.19;5120603;28;8828;-61
2023/05/22 02:31:26;;;;;;;;;21.50;20.00;;;;;15.32;74.43;99626.78;5120295;28;8991;-61
2023/05/22 02:33:53;;;;;;;;;18.50;14.25;;;;;15.35;73.87;99633.66;5120294;28;8824;-61
2023/05/22 02:36:42;;;;;;;;;17.25;16.75;;;;;15.40;74.30;99626.81;5112740;28;9517;-61
2023/05/22 02:39:10;;;;;;;;;21.50;18.25;;;;;15.43;73.66;99622.97;5120188;28;8840;-61
2023/05/22 02:41:38;;;;;;;;;18.00;15.25;;;;;15.46;73.71;99620.81;5119792;28;8874;-63
2023/05/22 02:44:06;;;;;;;;;19.75;15.50;;;;;15.49;73.57;99622.34;5120002;28;8836;-61
2023/05/22 02:46:34;;;;;;;;;18.75;16.00;;;;;15.53;73.83;99618.31;5119865;28;8836;-60
2023/05/22 02:49:02;;;;;;;;;17.50;16.50;;;;;15.56;73.22;99618.00;5119883;28;8823;-60
2023/05/22 02:51:30;;;;;;;;;15.25;14.50;;;;;15.59;73.67;99617.69;5120046;28;9597;-60
2023/05/22 02:53:57;;;;;;;;;16.25;14.75;;;;;15.64;73.14;99618.88;5120027;28;8928;-61
2023/05/22 02:56:27;;;;;;;;;14.50;12.75;;;;;15.71;73.09;99625.28;5119765;28;8819;-61
2023/05/22 02:58:55;;;;;;;;;12.75;12.00;;;;;15.76;73.11;99612.22;5119665;28;8835;-60
2023/05/22 03:01:25;;;;;;;;;15.25;13.50;;;;;15.81;73.10;99611.72;5119298;28;8844;-61
2023/05/22 03:03:54;;;;;;;;;17.50;14.75;;;;;15.82;73.03;99614.25;5119516;28;8883;-61
2023/05/22 03:06:24;;;;;;;;;16.00;13.50;;;;;15.84;73.15;99614.09;5119729;28;8836;-60
2023/05/22 03:08:52;;;;;;;;;12.50;11.50;;;;;15.81;73.19;99617.94;5119841;28;9547;-60
2023/05/22 03:11:20;;;;;;;;;16.75;15.25;;;;;15.77;73.43;99608.53;5119123;28;8950;-60
2023/05/22 03:13:48;;;;;;;;;20.75;18.50;;;;;15.73;73.66;99609.88;5119198;28;8820;-60
2023/05/22 03:16:15;;;;;;;;;15.50;14.50;;;;;15.67;73.75;99607.81;5118997;28;8971;-60
2023/05/22 03:18:43;;;;;;;;;9.25;7.00;;;;;15.64;73.90;99615.34;5118732;28;8820;-60
2023/05/22 03:21:11;;;;;;;;;16.75;15.75;;;;;15.59;73.48;99615.00;5118860;28;8831;-60
2023/05/22 03:23:39;;;;;;;;;19.50;16.50;;;;;15.56;74.06;99610.78;5119050;28;8852;-61
2023/05/22 03:26:07;;;;;;;;;16.50;16.50;;;;;15.51;73.93;99609.59;5118931;28;8851;-60
2023/05/22 03:28:34;;;;;;;;;18.25;14.00;;;;;15.46;73.81;99618.13;5118326;28;8828;-60
2023/05/22 03:31:02;;;;;;;;;15.25;12.00;;;;;15.42;74.45;99614.09;5118630;28;8866;-60
2023/05/22 03:33:30;;;;;;;;;18.00;15.00;;;;;15.38;74.13;99609.19;5117826;28;8854;-60
2023/05/22 03:35:57;;;;;;;;;12.00;10.50;;;;;15.33;74.27;99612.34;5118247;28;8844;-60
2023/05/22 03:38:25;;;;;;;;;12.00;10.50;;;;;15.28;74.19;99605.75;5118458;28;8840;-60
2023/05/22 03:40:53;;;;;;;;;15.75;15.00;;;;;15.23;74.77;99608.94;5118925;28;8842;-60
2023/05/22 03:43:21;;;;;;;;;14.50;12.00;;;;;15.19;74.41;99615.63;5118646;28;8962;-61
2023/05/22 03:45:49;;;;;;;;;16.50;14.50;;;;;15.13;74.96;99616.25;5118685;28;8938;-60
2023/05/22 03:48:16;;;;;;;;;14.25;13.25;;;;;15.11;74.76;99622.78;5118659;28;8824;-60
2023/05/22 03:50:44;;;;;;;;;16.50;13.25;;;;;15.09;74.68;99614.06;5118545;28;9535;-60
2023/05/22 03:53:12;;;;;;;;;19.25;16.00;;;;;15.06;75.13;99612.53;5118717;28;9482;-60
2023/05/22 03:55:40;;;;;;;;;18.75;16.00;;;;;15.04;74.74;99614.53;5118177;28;8950;-59
2023/05/22 03:58:08;;;;;;;;;17.25;14.50;;;;;15.00;75.03;99614.97;5117842;28;8847;-60
2023/05/22 04:00:37;;;;;;;;;14.00;12.50;;;;;14.95;75.16;99606.59;5118477;28;8938;-61
2023/05/22 04:03:06;;;;;;;;;17.50;12.75;;;;;14.92;74.96;99607.75;5118166;28;8982;-60
2023/05/22 04:05:34;;;;;;;;;17.00;15.50;;;;;14.89;75.27;99617.94;5118524;28;8941;-60
2023/05/22 04:08:02;;;;;;;;;17.00;14.50;;;;;14.88;75.03;99614.41;5117640;28;8976;-61
2023/05/22 04:10:29;;;;;;;;;16.75;14.25;;;;;14.89;75.37;99612.56;5118262;28;8836;-60
2023/05/22 04:12:57;;;;;;;;;20.50;17.00;;;;;14.91;75.48;99613.25;5117408;28;8942;-60
2023/05/22 04:15:25;;;;;;;;;10.00;10.00;;;;;14.91;75.14;99611.41;5117356;28;8851;-61
2023/05/22 04:17:53;;;;;;;;;17.75;17.50;;;;;14.96;74.57;99616.31;5117148;28;8812;-61
2023/05/22 04:20:22;;;;;;;;;18.75;15.00;;;;;14.98;74.77;99608.94;5117725;28;8843;-60
2023/05/22 04:22:50;;;;;;;;;14.00;13.00;;;;;14.98;74.63;99603.56;5117110;28;8859;-60
2023/05/22 04:25:18;;;;;;;;;20.00;16.50;;;;;14.98;75.09;99600.88;5116930;28;8838;-61
2023/05/22 04:27:46;;;;;;;;;17.75;16.75;;;;;15.00;74.77;99614.97;5116413;28;9084;-60
2023/05/22 04:30:15;;;;;;;;;19.00;18.00;;;;;15.03;74.81;99609.31;5116827;28;8847;-60
2023/05/22 04:32:43;;;;;;;;;15.00;12.75;;;;;15.04;74.11;99605.63;5117009;28;8827;-60
2023/05/22 04:35:11;;;;;;;;;19.50;16.50;;;;;15.05;74.51;99601.94;5116537;28;8982;-60
2023/05/22 04:37:41;;;;;;;;;15.00;14.00;;;;;15.06;74.27;99609.00;5116139;28;8832;-60
2023/05/22 04:40:10;;;;;;;;;17.75;15.75;;;;;15.06;74.45;99598.25;5115061;28;8936;-61
2023/05/22 04:42:38;;;;;;;;;18.50;16.00;;;;;15.08;74.03;99601.63;5115953;28;8850;-60
2023/05/22 04:45:05;;;;;;;;;21.00;20.50;;;;;15.10;74.62;99599.63;5115869;28;8820;-61
2023/05/22 04:47:33;;;;;;;;;11.50;11.00;;;;;15.12;74.13;99608.34;5115816;28;9513;-60
2023/05/22 04:50:01;;;;;;;;;15.25;13.00;;;;;15.15;74.11;99608.88;5116678;28;8847;-60
2023/05/22 04:52:31;;;;;;;;;16.50;13.50;;;;;15.18;74.41;99605.03;5116293;28;9517;-60
2023/05/22 04:54:59;;;;;;;;;21.50;17.50;;;;;15.20;74.43;99605.72;5116191;28;8824;-60
2023/05/22 04:57:28;;;;;;;;;15.50;14.50;;;;;15.23;73.97;99602.72;5115455;28;8828;-60
2023/05/22 04:59:56;;;;;;;;;19.50;18.00;;;;;15.28;74.27;99605.75;5116175;28;8866;-62
2023/05/22 05:02:24;;;;;;;;;20.00;18.75;;;;;15.33;74.04;99603.47;5116273;28;8979;-59
2023/05/22 05:04:52;;;;;;;;;22.25;21.75;;;;;15.39;73.95;99594.81;5116520;28;8880;-60
2023/05/22 05:07:20;;;;;;;;;21.00;19.00;;;;;15.47;73.78;99594.84;5116497;28;8816;-61
2023/05/22 05:09:48;;;;;;;;;18.50;17.75;;;;;15.54;73.85;99598.56;5116638;28;8920;-60
2023/05/22 05:12:15;;;;;;;;;14.00;12.50;;;;;15.61;72.93;99592.34;5116241;28;8832;-59
2023/05/22 05:14:44;;;;;;;;;17.00;17.00;;;;;15.70;73.14;99580.63;5115234;28;8950;-61
2023/05/22 05:17:11;;;;;;;;;21.50;20.00;;;;;15.79;72.62;99584.19;5116294;28;8946;-60
2023/05/22 05:19:39;;;;;;;;;24.00;20.25;;;;;15.88;72.19;99585.91;5115486;28;8986;-61
2023/05/22 05:22:07;;;;;;;;;18.00;14.50;;;;;15.98;72.31;99586.59;5116551;28;8824;-61
2023/05/22 05:24:35;;;;;;;;;19.50;17.75;;;;;16.06;72.37;99590.13;5116042;28;8918;-60
2023/05/22 05:27:02;;;;;;;;;18.25;18.00;;;;;16.15;71.98;99582.94;5116360;28;8820;-61
2023/05/22 05:29:30;;;;;;;;;20.75;18.25;;;;;16.26;71.96;99591.53;5115880;28;8866;-60
2023/05/22 05:31:58;;;;;;;;;22.75;20.75;;;;;16.38;71.68;99585.69;5115796;28;8958;-60
2023/05/22 05:34:26;;;;;;;;;18.00;16.00;;;;;16.48;72.16;99586.34;5114473;28;8878;-60
2023/05/22 05:36:56;;;;;;;;;23.00;21.00;;;;;16.62;71.68;99582.97;5114852;28;8836;-60
2023/05/22 05:39:23;;;;;;;;;20.25;18.25;;;;;16.76;71.30;99582.31;5114334;28;8824;-60
2023/05/22 05:41:51;;;;;;;;;23.00;21.75;;;;;16.91;70.91;99585.97;5113739;28;8845;-61
2023/05/22 05:44:19;;;;;;;;;20.75;19.75;;;;;17.07;70.75;99588.63;5113131;28;8844;-59
2023/05/22 05:46:47;;;;;;;;;25.75;23.25;;;;;17.19;70.34;99587.28;5113414;28;8867;-61
2023/05/22 05:49:14;;;;;;;;;27.50;24.00;;;;;17.31;70.00;99585.03;5112996;28;9094;-60
2023/05/22 05:51:42;;;;;;;;;24.75;21.00;;;;;17.39;69.61;99588.56;5112345;28;8924;-60
2023/05/22 05:54:10;;;;;;;;;21.25;21.00;;;;;17.47;70.04;99593.91;5113039;28;8909;-60
2023/05/22 05:56:38;;;;;;;;;25.25;22.50;;;;;17.53;69.60;99593.22;5112667;28;8933;-60
2023/05/22 05:59:06;;;;;;;;;23.50;21.00;;;;;17.60;69.52;99590.69;5111661;28;8970;-60
2023/05/22 06:01:34;;;;;;;;;16.25;16.25;;;;;17.67;70.04;99594.34;5112225;28;9727;-60
2023/05/22 06:04:02;;;;;;;;;25.50;24.75;;;;;17.76;69.83;99586.06;5111534;28;8887;-60
2023/05/22 06:06:34;;;;;;;;;11.00;8.00;;;;;17.82;69.44;99582.66;5111777;28;8844;-60
2023/05/22 06:09:04;;;;;;;;;26.75;21.50;;;;;17.88;69.74;99590.03;5112102;28;8828;-60
2023/05/22 06:11:32;;;;;;;;;22.50;18.50;;;;;17.96;69.58;99587.28;5112155;28;8839;-60
2023/05/22 06:13:59;;;;;;;;;24.50;21.75;;;;;18.04;69.21;99584.56;5112307;28;8836;-60
2023/05/22 06:16:27;;;;;;;;;24.75;22.00;;;;;18.16;68.98;99588.53;5111485;28;8843;-60
2023/05/22 06:18:56;;;;;;;;;27.00;24.00;;;;;18.31;69.09;99588.63;5112159;28;8848;-60
2023/05/22 06:21:24;;;;;;;;;21.75;20.00;;;;;18.47;68.54;99592.03;5112589;28;8940;-60
2023/05/22 06:23:51;;;;;;;;;29.00;26.00;;;;;18.62;68.28;99590.22;5112621;28;8836;-60
2023/05/22 06:26:20;;;;;;;;;27.40;23.60;;;;;18.72;68.25;99598.03;5112718;28;9531;-61
2023/05/22 06:28:49;;;;;;;;;28.00;24.60;;;;;18.78;68.12;99594.63;5112886;28;8835;-60
2023/05/22 06:31:17;;;;;;;;;31.40;29.40;;;;;18.83;67.95;99600.31;5112651;28;8850;-61
2023/05/22 06:33:45;;;;;;;;;28.60;26.40;;;;;18.87;68.02;99599.78;5111283;28;8949;-61
2023/05/22 06:36:13;;;;;;;;;28.80;25.40;;;;;18.91;68.26;99597.56;5112712;28;8827;-61
2023/05/22 06:38:41;;;;;;;;;26.20;23.20;;;;;18.93;68.32;99595.50;5113254;28;8856;-61
2023/05/22 06:41:08;;;;;;;;;24.80;23.20;;;;;18.93;68.16;99600.91;5113765;28;8832;-60
2023/05/22 06:43:37;;;;;;;;;22.40;22.20;;;;;18.93;68.55;99604.44;5114282;28;8890;-61
2023/05/22 06:46:05;;;;;;;;;33.40;29.00;;;;;18.95;68.34;99609.63;5113028;28;9868;-61
2023/05/22 06:48:33;;;;;;;;;14.00;10.80;;;;;18.94;68.77;99608.81;5113351;28;8862;-61
2023/05/22 06:51:01;;;;;;;;;30.40;27.00;;;;;18.93;68.70;99603.59;5113050;28;8843;-61
2023/05/22 06:53:29;;;;;;;;;26.40;22.00;;;;;18.92;68.84;99610.88;5113006;28;9497;-62
2023/05/22 06:55:57;;;;;;;;;33.00;25.40;;;;;18.94;68.67;99608.81;5113027;28;8827;-60
2023/05/22 06:58:25;;;;;;;;;29.40;24.60;;;;;19.00;69.14;99610.78;5113430;28;8843;-60
2023/05/22 07:00:54;;;;;;;;;29.20;25.40;;;;;19.06;69.38;99615.44;5114070;28;8831;-60
2023/05/22 07:03:22;;;;;;;;;30.75;29.50;;;;;19.10;68.99;99613.19;5115227;28;8831;-60
2023/05/22 07:05:50;;;;;;;;;28.80;25.00;;;;;19.09;68.96;99620.47;5117954;28;8875;-60
2023/05/22 07:08:18;;;;;;;;;20.00;19.00;;;;;19.07;69.17;99624.38;5118056;28;8848;-60
2023/05/22 07:10:45;;;;;;;;;28.80;24.80;;;;;19.05;69.46;99619.16;5117903;28;8832;-60
2023/05/22 07:13:13;;;;;;;;;25.20;22.80;;;;;19.05;69.04;99619.16;5117838;28;8832;-60
2023/05/22 07:15:41;;;;;;;;;20.00;19.20;;;;;19.03;69.25;99615.81;5117950;28;8846;-61
2023/05/22 07:18:11;;;;;;;;;20.20;19.60;;;;;19.02;69.19;99626.78;5118152;28;8851;-60
2023/05/22 07:20:39;;;;;;;;;22.80;21.80;;;;;19.03;69.17;99631.19;5117957;28;8972;-61
2023/05/22 07:23:08;;;;;;;;;26.20;23.00;;;;;19.06;69.30;99630.81;5118215;28;9624;-61
2023/05/22 07:25:35;;;;;;;;;15.40;13.40;;;;;19.11;69.52;99625.72;5117418;28;8917;-60
2023/05/22 07:28:07;;;;;;;;;23.60;23.20;;;;;19.15;69.52;99619.75;5117655;28;8921;-60
2023/05/22 07:30:35;;;;;;;;;26.80;22.40;;;;;19.20;69.02;99624.63;5116837;28;8928;-61
2023/05/22 07:33:03;;;;;;;;;25.40;24.80;;;;;19.27;69.08;99633.66;5116709;28;8835;-60
2023/05/22 07:35:31;;;;;;;;;28.80;24.20;;;;;19.34;69.17;99624.63;5116694;28;9584;-60
2023/05/22 07:37:59;;;;;;;;;23.20;19.00;;;;;19.46;68.60;99627.72;5115973;28;8847;-61
2023/05/22 07:40:27;;;;;;;;;26.00;22.40;;;;;19.57;68.00;99619.16;5116158;28;8840;-61
2023/05/22 07:42:55;;;;;;;;;31.60;27.40;;;;;19.64;68.74;99620.91;5115946;28;8836;-61
2023/05/22 07:45:23;;;;;;;;;28.60;24.20;;;;;19.67;68.19;99625.09;5116206;28;8839;-60
2023/05/22 07:47:51;;;;;;;;;29.00;24.60;;;;;19.72;68.02;99618.09;5117013;28;8855;-60
2023/05/22 07:50:43;;;;;;;;;30.40;27.40;;;;;19.81;68.01;99619.66;5116474;28;8848;-61
2023/05/22 07:53:11;;;;;;;;;27.80;24.40;;;;;19.86;68.03;99627.25;5116526;28;8925;-61
2023/05/22 07:55:39;;;;;;;;;29.00;26.60;;;;;19.90;67.76;99621.25;5116345;28;8916;-60
2023/05/22 07:58:09;;;;;;;;;29.20;25.80;;;;;19.94;68.05;99636.06;5116768;28;8856;-61
2023/05/22 08:00:37;;;;;;;;;32.00;30.60;;;;;19.99;68.06;99636.34;5116004;28;8835;-61
2023/05/22 08:03:05;;;;;;;;;25.00;22.60;;;;;20.05;67.97;99635.63;5116067;28;8852;-61
2023/05/22 08:05:33;;;;;;;;;25.80;24.20;;;;;20.12;67.44;99638.41;5115324;28;8990;-61
2023/05/22 08:08:01;;;;;;;;;32.60;30.20;;;;;20.18;67.71;99633.06;5114523;28;8840;-61
2023/05/22 08:10:29;;;;;;;;;30.60;27.00;;;;;20.25;67.87;99639.38;5114441;28;8840;-60
2023/05/22 08:13:15;;;;;;;;;35.20;28.20;;;;;20.35;67.73;99637.22;5115068;28;8824;-60
2023/05/22 08:15:43;;;;;;;;;33.20;29.40;;;;;20.39;67.53;99635.78;5115466;28;8824;-61
2023/05/22 08:18:11;;;;;;;;;26.80;25.80;;;;;20.45;67.34;99636.88;5116871;28;8836;-61
2023/05/22 08:20:39;;;;;;;;;31.00;28.40;;;;;20.50;67.28;99646.13;5116896;28;8858;-62
2023/05/22 08:23:07;;;;;;;;;29.80;28.80;;;;;20.56;67.48;99645.34;5116685;28;8848;-61
2023/05/22 08:25:35;;;;;;;;;27.20;23.20;;;;;20.62;67.02;99641.03;5117044;28;8816;-61
2023/05/22 08:28:03;;;;;;;;;46.80;39.60;;;;;20.71;66.85;99642.59;5116813;28;9505;-61
2023/05/22 08:30:31;;;;;;;;;39.00;34.80;;;;;20.85;66.92;99639.78;5116222;28;8858;-61
2023/05/22 08:32:59;;;;;;;;;37.00;29.40;;;;;21.02;66.67;99633.94;5115351;28;8950;-61
2023/05/22 08:35:27;;;;;;;;;30.20;27.60;;;;;21.23;66.29;99641.19;5114928;28;8889;-61
2023/05/22 08:37:55;;;;;;;;;30.40;28.00;;;;;21.44;65.86;99646.56;5114318;28;9505;-61
2023/05/22 08:40:22;;;;;;;;;33.20;28.00;;;;;21.64;65.62;99631.25;5114889;28;8839;-61
2023/05/22 08:42:53;;;;;;;;;36.00;34.20;;;;;21.84;64.74;99632.22;5115010;28;8974;-61
2023/05/22 08:45:24;;;;;;;;;35.20;29.40;;;;;22.04;64.75;99628.56;5116034;28;8824;-61
2023/05/22 08:47:52;;;;;;;;;33.00;30.40;;;;;22.28;63.98;99629.91;5115747;28;8862;-60
2023/05/22 08:50:20;;;;;;;;;29.60;27.00;;;;;22.48;64.07;99630.81;5115745;28;8844;-60
2023/05/22 08:52:48;;;;;;;;;29.00;26.00;;;;;22.67;63.80;99635.44;5115954;28;8824;-61
2023/05/22 08:55:18;;;;;;;;;33.80;29.80;;;;;22.85;63.53;99630.25;5115893;28;8836;-61
2023/05/22 08:57:46;;;;;;;;;39.00;33.20;;;;;23.02;62.96;99636.94;5115301;28;8835;-61
2023/05/22 09:00:14;;;;;;;;;39.80;34.20;;;;;23.21;62.95;99633.44;5115161;28;8977;-61
2023/05/22 09:02:42;;;;;;;;;33.00;30.40;;;;;23.37;62.52;99630.28;5115101;28;8839;-61
2023/05/22 09:05:10;;;;;;;;;28.60;23.20;;;;;23.43;62.78;99637.59;5114835;28;8864;-61
2023/05/22 09:07:39;;;;;;;;;28.20;25.00;;;;;23.51;62.92;99640.09;5115198;28;8820;-61
2023/05/22 09:10:07;;;;;;;;;31.60;29.80;;;;;23.56;62.23;99632.13;5115474;28;9544;-61
2023/05/22 09:12:35;;;;;;;;;35.80;31.60;;;;;23.53;62.80;99638.81;5114892;28;8899;-61
2023/05/22 09:15:03;;;;;;;;;33.80;29.00;;;;;23.54;62.99;99628.78;5114707;28;8874;-60
2023/05/22 09:17:31;;;;;;;;;32.20;26.60;;;;;23.59;63.28;99632.53;5114771;28;8950;-61
2023/05/22 09:19:59;;;;;;;;;27.20;27.20;;;;;23.67;62.76;99635.03;5114869;28;8978;-60
2023/05/22 09:22:28;;;;;;;;;19.00;17.60;;;;;23.75;62.68;99632.06;5114805;28;8850;-60
2023/05/22 09:24:58;;;;;;;;;36.80;30.20;;;;;23.90;62.94;99637.31;5114902;28;8832;-60
2023/05/22 09:27:25;;;;;;;;;27.80;23.80;;;;;24.00;62.61;99632.22;5114687;28;8984;-60
2023/05/22 09:29:53;;;;;;;;;34.00;28.20;;;;;24.12;62.67;99639.50;5114763;28;8859;-61
2023/05/22 09:32:21;;;;;;;;;33.40;28.60;;;;;24.20;62.48;99641.16;5114276;28;8836;-61
2023/05/22 09:34:49;;;;;;;;;34.00;30.00;;;;;24.28;62.32;99632.75;5113769;28;8860;-61
2023/05/22 09:37:17;;;;;;;;;31.80;27.80;;;;;24.38;61.80;99630.38;5112812;28;8819;-61
2023/05/22 09:39:45;;;;;;;;;29.60;25.00;;;;;24.42;61.69;99632.44;5112251;28;8840;-61
2023/05/22 09:42:13;;;;;;;;;30.40;29.60;;;;;24.54;61.76;99635.31;5112591;28;8836;-61
2023/05/22 09:44:43;;;;;;;;;23.60;22.80;;;;;24.72;61.07;99633.53;5113384;28;8828;-61
2023/05/22 09:47:13;;;;;;;;;34.20;29.80;;;;;25.00;60.60;99624.94;5114128;28;8913;-61
2023/05/22 09:49:40;;;;;;;;;30.20;27.40;;;;;25.25;60.54;99623.13;5113699;28;8980;-61
2023/05/22 09:52:08;;;;;;;;;31.40;28.80;;;;;25.42;59.62;99624.19;5113393;28;8861;-61
2023/05/22 09:54:37;;;;;;;;;30.20;26.60;;;;;25.41;60.13;99630.72;5112374;28;8840;-61
2023/05/22 09:57:05;;;;;;;;;28.60;25.20;;;;;25.54;60.17;99630.59;5113671;28;9840;-61
2023/05/22 09:59:33;;;;;;;;;31.60;30.00;;;;;25.73;59.69;99624.94;5113284;28;8844;-61
2023/05/22 10:02:02;;;;;;;;;27.60;23.20;;;;;25.89;59.57;99627.91;5113753;28;8840;-61
2023/05/22 10:04:30;;;;;;;;;28.80;24.80;;;;;26.00;58.81;99635.34;5113749;28;8913;-61
2023/05/22 10:06:58;;;;;;;;;26.60;24.20;;;;;26.18;59.12;99632.59;5113951;28;8840;-61
2023/05/22 10:09:29;;;;;;;;;26.20;25.00;;;;;26.55;58.68;99631.47;5114150;28;8941;-61
2023/05/22 10:11:57;;;;;;;;;22.80;22.20;;;;;27.02;57.36;99630.53;5114687;28;8847;-61
2023/05/22 10:14:25;;;;;;;;;28.60;26.60;;;;;27.48;57.03;99630.63;5114778;28;8954;-61
2023/05/22 10:16:56;;;;;;;;;28.80;27.40;;;;;27.96;55.79;99622.16;5114861;28;8812;-62
2023/05/22 10:19:25;;;;;;;;;30.80;28.20;;;;;28.45;54.76;99616.91;5114567;28;8901;-62
2023/05/22 10:21:54;;;;;;;;;26.60;24.80;;;;;28.92;54.57;99615.59;5114261;28;9524;-62
2023/05/22 10:24:22;;;;;;;;;25.40;23.60;;;;;29.24;53.89;99616.72;5112949;28;9533;-62
2023/05/22 10:26:50;;;;;;;;;17.60;15.40;;;;;29.47;53.48;99613.78;5112732;28;8855;-62
2023/05/22 10:29:18;;;;;;;;;33.00;29.80;;;;;29.47;53.61;99615.69;5113500;28;8862;-62
2023/05/22 10:31:46;;;;;;;;;26.80;24.80;;;;;29.14;54.61;99621.22;5113438;28;8835;-62
2023/05/22 10:34:14;;;;;;;;;28.40;27.00;;;;;29.17;54.70;99618.78;5113340;28;8835;-62
2023/05/22 10:36:42;;;;;;;;;29.40;26.60;;;;;29.11;54.77;99611.56;5113046;28;8823;-62
2023/05/22 10:39:11;;;;;;;;;26.00;24.80;;;;;29.04;54.72;99612.81;5115524;28;8851;-61
2023/05/22 10:41:39;;;;;;;;;24.40;23.00;;;;;28.82;55.21;99609.91;5117513;28;9591;-62
2023/05/22 10:44:07;;;;;;;;;30.00;25.00;;;;;28.90;54.91;99600.47;5116813;28;8836;-61
2023/05/22 10:46:35;;;;;;;;;28.80;27.00;;;;;29.11;55.08;99608.81;5116853;28;8858;-61
2023/05/22 10:49:03;;;;;;;;;28.80;25.00;;;;;29.49;53.76;99606.13;5117320;28;8850;-61
2023/05/22 10:51:33;;;;;;;;;25.60;24.20;;;;;30.06;53.15;99603.91;5116108;28;8920;-61
2023/05/22 10:54:01;;;;;;;;;27.20;25.80;;;;;30.44;51.93;99595.59;5116473;28;8966;-61
2023/05/22 10:56:28;;;;;;;;;28.60;25.80;;;;;30.62;52.14;99604.38;5116702;28;8832;-61
2023/05/22 10:58:57;;;;;;;;;24.80;23.60;;;;;30.97;51.13;99597.28;5117449;28;8828;-61
2023/05/22 11:01:26;;;;;;;;;24.60;21.60;;;;;31.34;50.87;99602.84;5116512;28;8836;-61
2023/05/22 11:03:54;;;;;;;;;29.40;27.20;;;;;31.70;50.07;99604.75;5116295;28;8843;-61
2023/05/22 11:06:22;;;;;;;;;30.20;26.00;;;;;31.91;49.91;99590.00;5116318;28;8974;-61
2023/05/22 11:08:50;;;;;;;;;26.00;21.20;;;;;32.10;49.40;99591.19;5116693;28;8854;-61
2023/05/22 11:11:18;;;;;;;;;30.20;28.40;;;;;32.34;48.69;99598.78;5117109;28;8863;-61
2023/05/22 11:13:47;;;;;;;;;29.20;26.00;;;;;32.32;49.44;99597.38;5116734;28;8823;-61
2023/05/22 11:16:15;;;;;;;;;30.40;28.80;;;;;32.44;49.35;99595.19;5116887;28;8824;-62
2023/05/22 11:18:42;;;;;;;;;30.60;28.80;;;;;32.63;48.49;99583.38;5117713;28;8929;-62
2023/05/22 11:21:12;;;;;;;;;26.40;26.20;;;;;32.85;48.90;99575.72;5117593;28;8863;-62
2023/05/22 11:23:41;;;;;;;;;30.80;27.60;;;;;33.14;47.96;99578.78;5116816;28;8843;-62
2023/05/22 11:26:10;;;;;;;;;32.80;30.00;;;;;33.32;47.06;99581.00;5116059;28;8832;-62
2023/05/22 11:28:38;;;;;;;;;24.20;23.00;;;;;33.45;47.10;99575.72;5115796;28;8839;-62